Terminal Aerodrome Forecast
Issued by NWS

Home | Current Version | Previous Version | Text Only | Print | Product List | Glossary On
Versions: 1 2 3 4 5 6 7 8 9 10 11 12 13 14 15 16 17
677
FTUS43 KMPX 251738
TAFRNH
TAF
KRNH 251738Z 2518/2618 16009KT P6SM SCT050 OVC080
     FM260600 15006KT P6SM VCSH BKN050
     FM261200 14006KT P6SM BKN060=

USA.gov is the U.S. government's official web portal to all federal, state and local government web resources and services.